sensor_id;sensor_type;location;lat;lon;timestamp;P1;durP1;ratioP1;P2;durP2;ratioP2
9964;SDS011;5023;53.554;9.964;2022-07-21T00:02:05;15.13;;;12.07;;
9964;SDS011;5023;53.554;9.964;2022-07-21T00:07:07;14.02;;;11.48;;
9964;SDS011;5023;53.554;9.964;2022-07-21T00:12:11;13.20;;;11.38;;
9964;SDS011;5023;53.554;9.964;2022-07-21T00:17:14;15.10;;;13.43;;
9964;SDS011;5023;53.554;9.964;2022-07-21T00:22:16;13.25;;;11.95;;
9964;SDS011;5023;53.554;9.964;2022-07-21T00:27:20;13.43;;;12.02;;
9964;SDS011;5023;53.554;9.964;2022-07-21T00:32:22;13.05;;;11.57;;
9964;SDS011;5023;53.554;9.964;2022-07-21T00:37:25;12.02;;;10.77;;
9964;SDS011;5023;53.554;9.964;2022-07-21T00:42:29;14.82;;;12.38;;
9964;SDS011;5023;53.554;9.964;2022-07-21T00:47:32;15.13;;;12.23;;
9964;SDS011;5023;53.554;9.964;2022-07-21T00:52:35;13.43;;;11.90;;
9964;SDS011;5023;53.554;9.964;2022-07-21T00:57:39;13.32;;;11.25;;
9964;SDS011;5023;53.554;9.964;2022-07-21T01:02:47;21.13;;;18.95;;
9964;SDS011;5023;53.554;9.964;2022-07-21T01:07:50;13.23;;;11.60;;
9964;SDS011;5023;53.554;9.964;2022-07-21T01:12:56;14.00;;;11.05;;
9964;SDS011;5023;53.554;9.964;2022-07-21T01:18:00;13.82;;;11.02;;
9964;SDS011;5023;53.554;9.964;2022-07-21T01:23:04;13.20;;;11.13;;
9964;SDS011;5023;53.554;9.964;2022-07-21T01:28:07;12.80;;;11.38;;
9964;SDS011;5023;53.554;9.964;2022-07-21T01:33:09;13.63;;;11.75;;
9964;SDS011;5023;53.554;9.964;2022-07-21T01:38:13;15.43;;;12.25;;
9964;SDS011;5023;53.554;9.964;2022-07-21T01:43:29;17.42;;;13.63;;
9964;SDS011;5023;53.554;9.964;2022-07-21T01:48:32;14.23;;;12.05;;
9964;SDS011;5023;53.554;9.964;2022-07-21T01:53:36;13.95;;;12.50;;
9964;SDS011;5023;53.554;9.964;2022-07-21T01:58:39;20.42;;;13.98;;
9964;SDS011;5023;53.554;9.964;2022-07-21T02:03:43;19.60;;;13.98;;
9964;SDS011;5023;53.554;9.964;2022-07-21T02:08:47;16.88;;;14.32;;
9964;SDS011;5023;53.554;9.964;2022-07-21T02:13:50;18.38;;;13.70;;
9964;SDS011;5023;53.554;9.964;2022-07-21T02:18:52;18.17;;;13.77;;
9964;SDS011;5023;53.554;9.964;2022-07-21T02:23:56;16.02;;;13.65;;
9964;SDS011;5023;53.554;9.964;2022-07-21T02:28:59;19.63;;;15.10;;
9964;SDS011;5023;53.554;9.964;2022-07-21T02:34:01;17.80;;;14.13;;
9964;SDS011;5023;53.554;9.964;2022-07-21T02:39:08;21.92;;;14.68;;
9964;SDS011;5023;53.554;9.964;2022-07-21T02:44:10;19.73;;;14.77;;
9964;SDS011;5023;53.554;9.964;2022-07-21T02:49:12;17.95;;;15.32;;
9964;SDS011;5023;53.554;9.964;2022-07-21T02:54:16;19.10;;;15.60;;
9964;SDS011;5023;53.554;9.964;2022-07-21T02:59:18;19.02;;;13.90;;
9964;SDS011;5023;53.554;9.964;2022-07-21T03:04:20;18.83;;;13.95;;
9964;SDS011;5023;53.554;9.964;2022-07-21T03:09:24;18.58;;;12.95;;
9964;SDS011;5023;53.554;9.964;2022-07-21T03:14:31;17.05;;;11.68;;
9964;SDS011;5023;53.554;9.964;2022-07-21T03:19:33;13.75;;;11.13;;
9964;SDS011;5023;53.554;9.964;2022-07-21T03:24:36;15.85;;;11.48;;
9964;SDS011;5023;53.554;9.964;2022-07-21T03:29:39;12.57;;;10.50;;
9964;SDS011;5023;53.554;9.964;2022-07-21T03:34:43;15.45;;;11.15;;
9964;SDS011;5023;53.554;9.964;2022-07-21T03:39:47;13.02;;;10.18;;
9964;SDS011;5023;53.554;9.964;2022-07-21T03:44:49;14.55;;;9.77;;
9964;SDS011;5023;53.554;9.964;2022-07-21T03:49:52;14.60;;;9.70;;
9964;SDS011;5023;53.554;9.964;2022-07-21T03:54:55;13.80;;;9.40;;
9964;SDS011;5023;53.554;9.964;2022-07-21T04:00:10;15.25;;;8.88;;
9964;SDS011;5023;53.554;9.964;2022-07-21T04:05:14;15.13;;;8.73;;
9964;SDS011;5023;53.554;9.964;2022-07-21T04:10:20;14.23;;;9.00;;
9964;SDS011;5023;53.554;9.964;2022-07-21T04:15:24;16.60;;;7.35;;
9964;SDS011;5023;53.554;9.964;2022-07-21T04:20:26;14.05;;;7.10;;
9964;SDS011;5023;53.554;9.964;2022-07-21T04:25:31;12.75;;;7.18;;
9964;SDS011;5023;53.554;9.964;2022-07-21T04:30:33;12.35;;;6.72;;
9964;SDS011;5023;53.554;9.964;2022-07-21T04:35:35;8.82;;;6.80;;
9964;SDS011;5023;53.554;9.964;2022-07-21T04:40:39;11.30;;;7.00;;
9964;SDS011;5023;53.554;9.964;2022-07-21T04:45:41;10.38;;;6.80;;
9964;SDS011;5023;53.554;9.964;2022-07-21T04:50:45;12.85;;;6.88;;
9964;SDS011;5023;53.554;9.964;2022-07-21T04:55:52;11.63;;;7.28;;
9964;SDS011;5023;53.554;9.964;2022-07-21T05:00:55;11.25;;;6.90;;
9964;SDS011;5023;53.554;9.964;2022-07-21T05:06:00;11.48;;;6.70;;
9964;SDS011;5023;53.554;9.964;2022-07-21T05:11:04;14.18;;;7.78;;
9964;SDS011;5023;53.554;9.964;2022-07-21T05:16:07;13.18;;;7.63;;
9964;SDS011;5023;53.554;9.964;2022-07-21T05:21:09;13.43;;;8.02;;
9964;SDS011;5023;53.554;9.964;2022-07-21T05:26:13;12.40;;;6.82;;
9964;SDS011;5023;53.554;9.964;2022-07-21T05:31:16;13.23;;;6.78;;
9964;SDS011;5023;53.554;9.964;2022-07-21T05:36:18;11.80;;;6.75;;
9964;SDS011;5023;53.554;9.964;2022-07-21T05:41:22;9.43;;;6.35;;
9964;SDS011;5023;53.554;9.964;2022-07-21T05:46:24;14.88;;;7.78;;
9964;SDS011;5023;53.554;9.964;2022-07-21T05:51:27;10.50;;;7.43;;
9964;SDS011;5023;53.554;9.964;2022-07-21T05:56:30;11.38;;;7.07;;
9964;SDS011;5023;53.554;9.964;2022-07-21T06:01:34;9.45;;;7.13;;
9964;SDS011;5023;53.554;9.964;2022-07-21T06:06:36;11.10;;;7.10;;
9964;SDS011;5023;53.554;9.964;2022-07-21T06:11:40;11.45;;;7.03;;
9964;SDS011;5023;53.554;9.964;2022-07-21T06:16:47;11.38;;;7.07;;
9964;SDS011;5023;53.554;9.964;2022-07-21T06:21:50;10.00;;;7.43;;
9964;SDS011;5023;53.554;9.964;2022-07-21T06:26:57;11.02;;;7.65;;
9964;SDS011;5023;53.554;9.964;2022-07-21T06:32:14;11.63;;;8.30;;
9964;SDS011;5023;53.554;9.964;2022-07-21T06:37:18;10.85;;;7.57;;
9964;SDS011;5023;53.554;9.964;2022-07-21T06:42:23;17.13;;;10.25;;
9964;SDS011;5023;53.554;9.964;2022-07-21T06:47:25;12.85;;;8.85;;
9964;SDS011;5023;53.554;9.964;2022-07-21T06:52:28;11.63;;;8.30;;
9964;SDS011;5023;53.554;9.964;2022-07-21T06:57:32;12.90;;;9.13;;
9964;SDS011;5023;53.554;9.964;2022-07-21T07:02:35;15.32;;;8.00;;
9964;SDS011;5023;53.554;9.964;2022-07-21T07:07:37;12.25;;;8.75;;
9964;SDS011;5023;53.554;9.964;2022-07-21T07:12:41;27.48;;;18.63;;
9964;SDS011;5023;53.554;9.964;2022-07-21T07:17:44;13.02;;;9.70;;
9964;SDS011;5023;53.554;9.964;2022-07-21T07:22:46;14.60;;;10.02;;
9964;SDS011;5023;53.554;9.964;2022-07-21T07:27:51;15.35;;;10.43;;
9964;SDS011;5023;53.554;9.964;2022-07-21T07:32:54;16.60;;;10.80;;
9964;SDS011;5023;53.554;9.964;2022-07-21T07:37:56;14.90;;;10.93;;
9964;SDS011;5023;53.554;9.964;2022-07-21T07:43:00;15.13;;;10.88;;
9964;SDS011;5023;53.554;9.964;2022-07-21T07:48:02;19.33;;;15.75;;
9964;SDS011;5023;53.554;9.964;2022-07-21T07:53:05;19.05;;;13.73;;
9964;SDS011;5023;53.554;9.964;2022-07-21T07:58:09;18.60;;;15.25;;
9964;SDS011;5023;53.554;9.964;2022-07-21T08:03:11;42.47;;;37.95;;
9964;SDS011;5023;53.554;9.964;2022-07-21T08:08:14;35.88;;;28.08;;
9964;SDS011;5023;53.554;9.964;2022-07-21T08:13:18;25.25;;;18.92;;
9964;SDS011;5023;53.554;9.964;2022-07-21T08:18:20;24.73;;;17.70;;
9964;SDS011;5023;53.554;9.964;2022-07-21T08:23:23;20.98;;;16.67;;
9964;SDS011;5023;53.554;9.964;2022-07-21T08:28:26;20.35;;;16.17;;
9964;SDS011;5023;53.554;9.964;2022-07-21T08:33:30;22.50;;;17.35;;
9964;SDS011;5023;53.554;9.964;2022-07-21T08:38:32;19.45;;;16.92;;
9964;SDS011;5023;53.554;9.964;2022-07-21T08:43:36;22.08;;;17.55;;
9964;SDS011;5023;53.554;9.964;2022-07-21T08:48:38;19.45;;;16.45;;
9964;SDS011;5023;53.554;9.964;2022-07-21T08:53:43;20.08;;;16.52;;
9964;SDS011;5023;53.554;9.964;2022-07-21T08:58:47;20.25;;;17.88;;
9964;SDS011;5023;53.554;9.964;2022-07-21T09:03:53;19.92;;;17.00;;
9964;SDS011;5023;53.554;9.964;2022-07-21T09:08:55;22.95;;;16.67;;
9964;SDS011;5023;53.554;9.964;2022-07-21T09:14:07;21.73;;;16.10;;
9964;SDS011;5023;53.554;9.964;2022-07-21T09:19:18;18.88;;;15.15;;
9964;SDS011;5023;53.554;9.964;2022-07-21T09:24:22;36.50;;;31.08;;
9964;SDS011;5023;53.554;9.964;2022-07-21T09:29:34;16.88;;;15.27;;
9964;SDS011;5023;53.554;9.964;2022-07-21T09:34:39;45.65;;;41.05;;
9964;SDS011;5023;53.554;9.964;2022-07-21T09:39:42;18.23;;;16.30;;
9964;SDS011;5023;53.554;9.964;2022-07-21T09:44:48;19.10;;;16.33;;
9964;SDS011;5023;53.554;9.964;2022-07-21T09:49:53;16.98;;;15.27;;
9964;SDS011;5023;53.554;9.964;2022-07-21T09:55:00;17.73;;;16.02;;
9964;SDS011;5023;53.554;9.964;2022-07-21T10:00:08;15.88;;;14.25;;
9964;SDS011;5023;53.554;9.964;2022-07-21T10:05:14;17.85;;;16.10;;
9964;SDS011;5023;53.554;9.964;2022-07-21T10:10:17;43.03;;;37.50;;
9964;SDS011;5023;53.554;9.964;2022-07-21T10:15:22;16.10;;;14.48;;
9964;SDS011;5023;53.554;9.964;2022-07-21T10:20:26;14.43;;;13.00;;
9964;SDS011;5023;53.554;9.964;2022-07-21T10:25:33;18.27;;;13.25;;
9964;SDS011;5023;53.554;9.964;2022-07-21T10:30:40;14.13;;;12.82;;
9964;SDS011;5023;53.554;9.964;2022-07-21T10:35:44;14.30;;;12.38;;
9964;SDS011;5023;53.554;9.964;2022-07-21T10:40:49;52.33;;;46.83;;
9964;SDS011;5023;53.554;9.964;2022-07-21T10:45:53;14.35;;;12.95;;
9964;SDS011;5023;53.554;9.964;2022-07-21T10:50:57;12.32;;;11.23;;
9964;SDS011;5023;53.554;9.964;2022-07-21T10:55:59;12.50;;;11.20;;
9964;SDS011;5023;53.554;9.964;2022-07-21T11:01:06;10.15;;;9.10;;
9964;SDS011;5023;53.554;9.964;2022-07-21T11:06:21;10.93;;;10.07;;
9964;SDS011;5023;53.554;9.964;2022-07-21T11:11:25;10.52;;;9.52;;
9964;SDS011;5023;53.554;9.964;2022-07-21T11:22:11;11.50;;;10.40;;
9964;SDS011;5023;53.554;9.964;2022-07-21T11:27:17;9.77;;;8.88;;
9964;SDS011;5023;53.554;9.964;2022-07-21T11:32:21;11.75;;;10.65;;
9964;SDS011;5023;53.554;9.964;2022-07-21T11:37:30;10.65;;;9.65;;
9964;SDS011;5023;53.554;9.964;2022-07-21T11:42:34;9.98;;;8.98;;
9964;SDS011;5023;53.554;9.964;2022-07-21T11:47:39;8.57;;;7.82;;
9964;SDS011;5023;53.554;9.964;2022-07-21T11:52:43;10.95;;;9.85;;
9964;SDS011;5023;53.554;9.964;2022-07-21T11:57:47;17.27;;;15.70;;
9964;SDS011;5023;53.554;9.964;2022-07-21T12:02:49;8.20;;;7.40;;
9964;SDS011;5023;53.554;9.964;2022-07-21T12:07:53;7.68;;;6.63;;
9964;SDS011;5023;53.554;9.964;2022-07-21T12:12:58;7.13;;;6.45;;
9964;SDS011;5023;53.554;9.964;2022-07-21T12:18:02;7.28;;;6.68;;
9964;SDS011;5023;53.554;9.964;2022-07-21T12:23:18;8.20;;;7.40;;
9964;SDS011;5023;53.554;9.964;2022-07-21T12:33:44;7.72;;;7.00;;
9964;SDS011;5023;53.554;9.964;2022-07-21T12:38:49;7.70;;;7.00;;
9964;SDS011;5023;53.554;9.964;2022-07-21T12:43:55;6.60;;;6.10;;
9964;SDS011;5023;53.554;9.964;2022-07-21T12:49:02;6.32;;;5.82;;
9964;SDS011;5023;53.554;9.964;2022-07-21T12:54:08;6.75;;;6.15;;
9964;SDS011;5023;53.554;9.964;2022-07-21T12:59:10;6.13;;;5.63;;
9964;SDS011;5023;53.554;9.964;2022-07-21T13:04:14;6.85;;;6.25;;
9964;SDS011;5023;53.554;9.964;2022-07-21T13:09:19;6.75;;;6.25;;
9964;SDS011;5023;53.554;9.964;2022-07-21T13:14:21;6.38;;;5.82;;
9964;SDS011;5023;53.554;9.964;2022-07-21T13:19:23;6.50;;;5.85;;
9964;SDS011;5023;53.554;9.964;2022-07-21T13:24:27;7.38;;;6.75;;
9964;SDS011;5023;53.554;9.964;2022-07-21T13:29:30;7.45;;;6.85;;
9964;SDS011;5023;53.554;9.964;2022-07-21T13:34:32;7.70;;;7.00;;
9964;SDS011;5023;53.554;9.964;2022-07-21T13:39:39;10.90;;;9.57;;
9964;SDS011;5023;53.554;9.964;2022-07-21T13:44:42;5.15;;;4.72;;
9964;SDS011;5023;53.554;9.964;2022-07-21T13:49:44;3.60;;;3.40;;
9964;SDS011;5023;53.554;9.964;2022-07-21T13:54:48;4.40;;;4.10;;
9964;SDS011;5023;53.554;9.964;2022-07-21T13:59:50;4.07;;;3.78;;
9964;SDS011;5023;53.554;9.964;2022-07-21T14:04:52;4.20;;;3.88;;
9964;SDS011;5023;53.554;9.964;2022-07-21T14:09:56;4.88;;;4.22;;
9964;SDS011;5023;53.554;9.964;2022-07-21T14:14:58;11.07;;;10.07;;
9964;SDS011;5023;53.554;9.964;2022-07-21T14:20:01;6.57;;;5.78;;
9964;SDS011;5023;53.554;9.964;2022-07-21T14:25:05;6.72;;;6.03;;
9964;SDS011;5023;53.554;9.964;2022-07-21T14:30:21;4.95;;;4.55;;
9964;SDS011;5023;53.554;9.964;2022-07-21T14:35:25;4.30;;;4.00;;
9964;SDS011;5023;53.554;9.964;2022-07-21T14:40:30;5.30;;;4.80;;
9964;SDS011;5023;53.554;9.964;2022-07-21T14:45:36;4.53;;;4.13;;
9964;SDS011;5023;53.554;9.964;2022-07-21T14:50:39;4.05;;;3.75;;
9964;SDS011;5023;53.554;9.964;2022-07-21T14:55:44;5.45;;;5.05;;
9964;SDS011;5023;53.554;9.964;2022-07-21T15:00:46;4.70;;;4.30;;
9964;SDS011;5023;53.554;9.964;2022-07-21T15:05:49;5.57;;;5.13;;
9964;SDS011;5023;53.554;9.964;2022-07-21T15:10:54;5.10;;;4.70;;
9964;SDS011;5023;53.554;9.964;2022-07-21T15:15:56;5.78;;;4.80;;
9964;SDS011;5023;53.554;9.964;2022-07-21T15:20:58;6.00;;;5.40;;
9964;SDS011;5023;53.554;9.964;2022-07-21T15:26:02;6.55;;;6.05;;
9964;SDS011;5023;53.554;9.964;2022-07-21T15:31:05;5.35;;;5.00;;
9964;SDS011;5023;53.554;9.964;2022-07-21T15:36:07;5.07;;;4.68;;
9964;SDS011;5023;53.554;9.964;2022-07-21T15:41:11;5.60;;;4.93;;
9964;SDS011;5023;53.554;9.964;2022-07-21T15:46:17;6.93;;;5.25;;
9964;SDS011;5023;53.554;9.964;2022-07-21T15:51:19;5.60;;;5.10;;
9964;SDS011;5023;53.554;9.964;2022-07-21T15:56:23;6.50;;;6.00;;
9964;SDS011;5023;53.554;9.964;2022-07-21T16:01:25;10.02;;;9.23;;
9964;SDS011;5023;53.554;9.964;2022-07-21T16:06:28;9.90;;;9.05;;
9964;SDS011;5023;53.554;9.964;2022-07-21T16:11:32;10.95;;;10.05;;
9964;SDS011;5023;53.554;9.964;2022-07-21T16:16:34;12.93;;;11.63;;
9964;SDS011;5023;53.554;9.964;2022-07-21T16:21:36;12.45;;;11.45;;
9964;SDS011;5023;53.554;9.964;2022-07-21T16:26:40;12.32;;;11.32;;
9964;SDS011;5023;53.554;9.964;2022-07-21T16:31:43;12.30;;;11.25;;
9964;SDS011;5023;53.554;9.964;2022-07-21T16:36:46;13.18;;;12.07;;
9964;SDS011;5023;53.554;9.964;2022-07-21T16:41:50;12.88;;;11.70;;
9964;SDS011;5023;53.554;9.964;2022-07-21T16:46:55;14.82;;;13.48;;
9964;SDS011;5023;53.554;9.964;2022-07-21T16:51:58;12.73;;;11.73;;
9964;SDS011;5023;53.554;9.964;2022-07-21T16:57:02;13.93;;;12.73;;
9964;SDS011;5023;53.554;9.964;2022-07-21T17:02:05;14.55;;;13.30;;
9964;SDS011;5023;53.554;9.964;2022-07-21T17:07:07;19.10;;;16.33;;
9964;SDS011;5023;53.554;9.964;2022-07-21T17:12:11;15.90;;;14.50;;
9964;SDS011;5023;53.554;9.964;2022-07-21T17:17:13;17.08;;;15.52;;
9964;SDS011;5023;53.554;9.964;2022-07-21T17:22:15;17.80;;;16.20;;
9964;SDS011;5023;53.554;9.964;2022-07-21T17:27:19;15.57;;;14.27;;
9964;SDS011;5023;53.554;9.964;2022-07-21T17:32:21;16.23;;;14.82;;
9964;SDS011;5023;53.554;9.964;2022-07-21T17:37:26;17.90;;;16.15;;
9964;SDS011;5023;53.554;9.964;2022-07-21T17:42:30;17.00;;;15.50;;
9964;SDS011;5023;53.554;9.964;2022-07-21T17:47:32;18.42;;;16.75;;
9964;SDS011;5023;53.554;9.964;2022-07-21T17:52:34;19.35;;;17.60;;
9964;SDS011;5023;53.554;9.964;2022-07-21T17:57:38;19.27;;;17.48;;
9964;SDS011;5023;53.554;9.964;2022-07-21T18:02:57;19.38;;;17.50;;
9964;SDS011;5023;53.554;9.964;2022-07-21T18:08:02;18.73;;;16.98;;
9964;SDS011;5023;53.554;9.964;2022-07-21T18:13:05;18.77;;;16.98;;
9964;SDS011;5023;53.554;9.964;2022-07-21T18:18:09;18.33;;;16.73;;
9964;SDS011;5023;53.554;9.964;2022-07-21T18:23:13;24.73;;;22.52;;
9964;SDS011;5023;53.554;9.964;2022-07-21T18:28:17;19.70;;;17.85;;
9964;SDS011;5023;53.554;9.964;2022-07-21T18:33:19;18.67;;;16.77;;
9964;SDS011;5023;53.554;9.964;2022-07-21T18:38:21;19.90;;;18.20;;
9964;SDS011;5023;53.554;9.964;2022-07-21T18:43:25;17.98;;;16.38;;
9964;SDS011;5023;53.554;9.964;2022-07-21T18:48:27;19.35;;;17.58;;
9964;SDS011;5023;53.554;9.964;2022-07-21T18:53:29;20.15;;;18.15;;
9964;SDS011;5023;53.554;9.964;2022-07-21T18:58:33;13.05;;;11.80;;
9964;SDS011;5023;53.554;9.964;2022-07-21T19:03:36;31.90;;;28.35;;
9964;SDS011;5023;53.554;9.964;2022-07-21T19:08:38;12.45;;;11.45;;
9964;SDS011;5023;53.554;9.964;2022-07-21T19:13:41;12.27;;;11.18;;
9964;SDS011;5023;53.554;9.964;2022-07-21T19:18:44;13.75;;;12.48;;
9964;SDS011;5023;53.554;9.964;2022-07-21T19:23:46;13.13;;;11.93;;
9964;SDS011;5023;53.554;9.964;2022-07-21T19:28:49;12.68;;;11.48;;
9964;SDS011;5023;53.554;9.964;2022-07-21T19:33:55;12.05;;;11.00;;
9964;SDS011;5023;53.554;9.964;2022-07-21T19:38:57;12.05;;;11.05;;
9964;SDS011;5023;53.554;9.964;2022-07-21T19:44:01;12.85;;;11.75;;
9964;SDS011;5023;53.554;9.964;2022-07-21T19:49:03;11.07;;;10.18;;
9964;SDS011;5023;53.554;9.964;2022-07-21T19:54:06;11.18;;;10.32;;
9964;SDS011;5023;53.554;9.964;2022-07-21T19:59:09;11.70;;;10.70;;
9964;SDS011;5023;53.554;9.964;2022-07-21T20:04:14;11.10;;;10.15;;
9964;SDS011;5023;53.554;9.964;2022-07-21T20:09:16;11.77;;;10.63;;
9964;SDS011;5023;53.554;9.964;2022-07-21T20:14:20;12.18;;;10.98;;
9964;SDS011;5023;53.554;9.964;2022-07-21T20:19:22;11.23;;;10.30;;
9964;SDS011;5023;53.554;9.964;2022-07-21T20:24:25;12.55;;;11.45;;
9964;SDS011;5023;53.554;9.964;2022-07-21T20:29:29;12.43;;;11.32;;
9964;SDS011;5023;53.554;9.964;2022-07-21T20:34:31;12.73;;;11.45;;
9964;SDS011;5023;53.554;9.964;2022-07-21T20:39:37;12.13;;;11.13;;
9964;SDS011;5023;53.554;9.964;2022-07-21T20:44:43;12.15;;;11.05;;
9964;SDS011;5023;53.554;9.964;2022-07-21T20:49:46;12.52;;;11.32;;
9964;SDS011;5023;53.554;9.964;2022-07-21T20:54:49;13.00;;;11.80;;
9964;SDS011;5023;53.554;9.964;2022-07-21T20:59:53;12.60;;;11.48;;
9964;SDS011;5023;53.554;9.964;2022-07-21T21:04:55;12.73;;;11.63;;
9964;SDS011;5023;53.554;9.964;2022-07-21T21:09:58;13.88;;;12.68;;
9964;SDS011;5023;53.554;9.964;2022-07-21T21:15:02;13.88;;;12.55;;
9964;SDS011;5023;53.554;9.964;2022-07-21T21:20:05;15.02;;;13.43;;
9964;SDS011;5023;53.554;9.964;2022-07-21T21:25:09;14.80;;;13.40;;
9964;SDS011;5023;53.554;9.964;2022-07-21T21:30:13;14.40;;;13.02;;
9964;SDS011;5023;53.554;9.964;2022-07-21T21:35:19;14.68;;;13.27;;
9964;SDS011;5023;53.554;9.964;2022-07-21T21:40:22;15.95;;;14.45;;
9964;SDS011;5023;53.554;9.964;2022-07-21T21:45:29;15.05;;;13.70;;
9964;SDS011;5023;53.554;9.964;2022-07-21T21:50:32;15.10;;;13.70;;
9964;SDS011;5023;53.554;9.964;2022-07-21T21:55:35;15.48;;;14.10;;
9964;SDS011;5023;53.554;9.964;2022-07-21T22:00:42;16.27;;;14.77;;
9964;SDS011;5023;53.554;9.964;2022-07-21T22:05:46;15.77;;;14.20;;
9964;SDS011;5023;53.554;9.964;2022-07-21T22:10:48;17.52;;;15.93;;
9964;SDS011;5023;53.554;9.964;2022-07-21T22:15:52;17.75;;;15.98;;
9964;SDS011;5023;53.554;9.964;2022-07-21T22:20:54;17.23;;;15.23;;
9964;SDS011;5023;53.554;9.964;2022-07-21T22:25:56;20.98;;;18.80;;
9964;SDS011;5023;53.554;9.964;2022-07-21T22:31:14;17.70;;;16.02;;
9964;SDS011;5023;53.554;9.964;2022-07-21T22:36:18;20.92;;;18.42;;
9964;SDS011;5023;53.554;9.964;2022-07-21T22:41:21;22.15;;;19.95;;
9964;SDS011;5023;53.554;9.964;2022-07-21T22:46:26;20.20;;;18.40;;
9964;SDS011;5023;53.554;9.964;2022-07-21T22:51:30;20.85;;;18.85;;
9964;SDS011;5023;53.554;9.964;2022-07-21T22:56:32;21.42;;;19.42;;
9964;SDS011;5023;53.554;9.964;2022-07-21T23:01:36;21.52;;;19.35;;
9964;SDS011;5023;53.554;9.964;2022-07-21T23:06:45;21.83;;;19.73;;
9964;SDS011;5023;53.554;9.964;2022-07-21T23:11:47;22.02;;;19.73;;
9964;SDS011;5023;53.554;9.964;2022-07-21T23:16:53;21.85;;;19.77;;
9964;SDS011;5023;53.554;9.964;2022-07-21T23:21:56;22.48;;;20.20;;
9964;SDS011;5023;53.554;9.964;2022-07-21T23:26:58;21.50;;;19.42;;
9964;SDS011;5023;53.554;9.964;2022-07-21T23:32:02;23.88;;;21.48;;
9964;SDS011;5023;53.554;9.964;2022-07-21T23:37:05;24.75;;;22.20;;
9964;SDS011;5023;53.554;9.964;2022-07-21T23:42:10;23.52;;;21.13;;
9964;SDS011;5023;53.554;9.964;2022-07-21T23:47:14;22.38;;;20.17;;
9964;SDS011;5023;53.554;9.964;2022-07-21T23:52:16;22.73;;;20.45;;
9964;SDS011;5023;53.554;9.964;2022-07-21T23:57:19;21.25;;;19.35;;
